createdAt,value
2018-10-11T00:02:22.480Z,5.63
2018-10-11T00:04:51.979Z,5.27
2018-10-11T00:07:25.132Z,6.53
2018-10-11T00:09:54.521Z,4.77
2018-10-11T00:12:27.194Z,5.83
2018-10-11T00:14:56.750Z,6.10
2018-10-11T00:17:29.313Z,5.43
2018-10-11T00:19:58.583Z,5.83
2018-10-11T00:22:31.722Z,5.47
2018-10-11T00:25:01.368Z,5.80
2018-10-11T00:27:34.595Z,4.93
2018-10-11T00:30:04.478Z,5.60
2018-10-11T00:32:36.805Z,4.77
2018-10-11T00:35:06.200Z,5.13
2018-10-11T00:37:38.763Z,4.77
2018-10-11T00:40:09.111Z,4.80
2018-10-11T00:42:42.270Z,4.50
2018-10-11T00:45:11.752Z,6.20
2018-10-11T00:47:48.362Z,5.53
2018-10-11T00:50:17.582Z,4.73
2018-10-11T00:52:47.142Z,4.63
2018-10-11T00:55:16.386Z,6.27
2018-10-11T00:57:50.612Z,5.10
2018-10-11T01:00:20.277Z,6.67
2018-10-11T01:02:53.897Z,5.17
2018-10-11T01:05:23.122Z,5.00
2018-10-11T01:07:55.140Z,5.63
2018-10-11T01:10:24.399Z,4.47
2018-10-11T01:13:01.088Z,5.03
2018-10-11T01:15:30.504Z,5.20
2018-10-11T01:18:01.704Z,6.33
2018-10-11T01:20:30.946Z,4.93
2018-10-11T01:23:03.668Z,6.03
2018-10-11T01:25:33.233Z,5.70
2018-10-11T01:28:09.754Z,4.40
2018-10-11T01:30:43.335Z,4.97
2018-10-11T01:33:12.719Z,5.73
2018-10-11T01:35:42.734Z,7.50
2018-10-11T01:38:15.536Z,4.50
2018-10-11T01:40:44.767Z,4.83
2018-10-11T01:43:17.588Z,5.07
2018-10-11T01:45:47.583Z,4.57
2018-10-11T01:48:19.336Z,5.20
2018-10-11T01:50:48.554Z,5.60
2018-10-11T01:53:21.245Z,7.53
2018-10-11T01:55:50.438Z,6.90
2018-10-11T01:58:23.477Z,7.30
2018-10-11T02:00:52.938Z,8.50
2018-10-11T02:03:26.190Z,7.50
2018-10-11T02:05:55.842Z,6.70
2018-10-11T02:08:28.671Z,6.83
2018-10-11T02:10:59.489Z,6.13
2018-10-11T02:13:32.591Z,6.30
2018-10-11T02:16:02.202Z,6.37
2018-10-11T02:18:34.774Z,6.93
2018-10-11T02:21:03.965Z,7.77
2018-10-11T02:23:41.187Z,5.73
2018-10-11T02:26:10.436Z,6.20
2018-10-11T02:28:40.119Z,5.30
2018-10-11T02:31:09.588Z,5.63
2018-10-11T02:33:42.471Z,10.80
2018-10-11T02:36:12.056Z,5.70
2018-10-11T02:38:45.551Z,6.37
2018-10-11T02:41:14.753Z,7.47
2018-10-11T02:43:48.254Z,5.60
2018-10-11T02:46:17.678Z,5.67
2018-10-11T02:48:50.541Z,7.30
2018-10-11T02:51:19.704Z,6.23
2018-10-11T02:53:57.449Z,6.03
2018-10-11T02:56:26.950Z,7.10
2018-10-11T02:59:07.470Z,6.73
2018-10-11T03:01:37.111Z,6.97
2018-10-11T03:04:06.815Z,6.73
2018-10-11T03:06:37.977Z,6.23
2018-10-11T03:09:09.245Z,7.00
2018-10-11T03:11:39.072Z,6.47
2018-10-11T03:14:08.313Z,6.57
2018-10-11T03:16:37.805Z,6.27
2018-10-11T03:19:08.198Z,6.27
2018-10-11T03:21:37.698Z,6.33
2018-10-11T03:24:12.779Z,6.20
2018-10-11T03:26:42.037Z,6.00
2018-10-11T03:29:15.140Z,5.23
2018-10-11T03:31:44.681Z,6.00
2018-10-11T03:34:17.405Z,5.60
2018-10-11T03:36:46.662Z,6.47
2018-10-11T03:39:19.156Z,6.77
2018-10-11T03:41:48.330Z,5.90
2018-10-11T03:44:25.197Z,6.87
2018-10-11T03:46:54.615Z,5.97
2018-10-11T03:49:25.496Z,6.87
2018-10-11T03:51:54.647Z,6.23
2018-10-11T03:54:26.712Z,6.00
2018-10-11T03:56:56.056Z,8.00
2018-10-11T03:59:29.723Z,7.10
2018-10-11T04:01:59.567Z,6.37
2018-10-11T04:04:32.288Z,9.57
2018-10-11T04:07:03.336Z,6.10
2018-10-11T04:09:33.775Z,6.97
2018-10-11T04:12:03.278Z,8.07
2018-10-11T04:14:39.502Z,6.30
2018-10-11T04:17:08.742Z,7.10
2018-10-11T04:19:41.770Z,9.17
2018-10-11T04:22:11.436Z,6.83
2018-10-11T04:24:42.165Z,6.47
2018-10-11T04:27:11.693Z,7.60
2018-10-11T04:29:44.960Z,7.33
2018-10-11T04:32:14.198Z,7.27
2018-10-11T04:34:50.765Z,8.03
2018-10-11T04:37:19.950Z,8.67
2018-10-11T04:39:50.306Z,11.70
2018-10-11T04:42:19.775Z,8.83
2018-10-11T04:44:55.951Z,7.87
2018-10-11T04:47:25.217Z,7.13
2018-10-11T04:49:55.569Z,9.17
2018-10-11T04:52:24.784Z,7.40
2018-10-11T04:54:59.056Z,7.73
2018-10-11T04:57:28.294Z,7.87
2018-10-11T05:00:01.196Z,7.20
2018-10-11T05:02:30.767Z,7.90
2018-10-11T05:05:04.131Z,7.57
2018-10-11T05:07:33.513Z,8.20
2018-10-11T05:10:10.521Z,7.23
2018-10-11T05:12:40.081Z,7.07
2018-10-11T05:15:12.780Z,8.33
2018-10-11T05:17:43.285Z,7.93
2018-10-11T05:20:14.370Z,7.17
2018-10-11T05:22:43.641Z,7.63
2018-10-11T05:25:16.724Z,7.27
2018-10-11T05:27:46.717Z,8.00
2018-10-11T05:30:19.772Z,9.03
2018-10-11T05:32:49.249Z,7.37
2018-10-11T05:35:21.979Z,6.00
2018-10-11T05:37:51.255Z,5.63
2018-10-11T05:40:23.659Z,6.40
2018-10-11T05:42:53.275Z,6.20
2018-10-11T05:45:26.829Z,5.47
2018-10-11T05:47:56.902Z,5.33
2018-10-11T05:50:29.014Z,7.07
2018-10-11T05:52:58.717Z,6.40
2018-10-11T05:55:31.797Z,6.87
2018-10-11T05:58:01.574Z,5.93
2018-10-11T06:00:34.266Z,6.63
2018-10-11T06:03:04.277Z,8.10
2018-10-11T06:05:38.369Z,7.33
2018-10-11T06:08:08.097Z,7.00
2018-10-11T06:10:41.561Z,7.00
2018-10-11T06:13:11.717Z,6.33
2018-10-11T06:15:43.820Z,6.47
2018-10-11T06:18:13.482Z,6.30
2018-10-11T06:20:46.219Z,6.43
2018-10-11T06:23:15.450Z,7.70
2018-10-11T06:25:48.969Z,6.50
2018-10-11T06:28:18.622Z,5.73
2018-10-11T06:30:51.769Z,7.00
2018-10-11T06:33:21.153Z,7.23
2018-10-11T06:35:54.650Z,6.10
2018-10-11T06:38:24.106Z,6.40
2018-10-11T06:40:56.600Z,5.93
2018-10-11T06:43:26.568Z,6.33
2018-10-11T06:46:03.386Z,6.57
2018-10-11T06:48:32.890Z,7.23
2018-10-11T06:51:03.593Z,6.40
2018-10-11T06:53:32.916Z,7.50
2018-10-11T06:56:06.189Z,7.03
2018-10-11T06:58:35.475Z,6.60
2018-10-11T07:01:12.218Z,6.17
2018-10-11T07:03:41.703Z,5.87
2018-10-11T07:06:14.441Z,4.90
2018-10-11T07:08:43.720Z,8.00
2018-10-11T07:11:15.131Z,5.13
2018-10-11T07:13:44.641Z,4.73
2018-10-11T07:16:17.276Z,5.17
2018-10-11T07:18:46.474Z,4.70
2018-10-11T07:21:20.053Z,4.97
2018-10-11T07:23:49.340Z,4.93
2018-10-11T07:26:26.039Z,5.33
2018-10-11T07:28:55.265Z,5.30
2018-10-11T07:31:24.884Z,5.80
2018-10-11T07:33:54.135Z,6.27
2018-10-11T07:36:30.440Z,4.47
2018-10-11T07:39:00.432Z,4.83
2018-10-11T07:41:30.051Z,4.83
2018-10-11T07:43:59.267Z,4.73
2018-10-11T07:46:32.257Z,4.33
2018-10-11T07:49:02.723Z,4.23
2018-10-11T07:51:35.461Z,4.00
2018-10-11T07:54:05.088Z,4.00
2018-10-11T07:56:37.795Z,4.77
2018-10-11T07:59:07.332Z,3.60
2018-10-11T08:01:40.215Z,3.53
2018-10-11T08:04:09.487Z,4.00
2018-10-11T08:06:43.312Z,3.43
2018-10-11T08:09:12.836Z,6.10
2018-10-11T08:11:44.131Z,4.20
2018-10-11T08:14:13.435Z,4.13
2018-10-11T08:16:53.219Z,3.00
2018-10-11T08:19:27.646Z,3.87
2018-10-11T08:21:57.687Z,3.60
2018-10-11T08:24:27.085Z,2.90
2018-10-11T08:26:56.372Z,2.87
2018-10-11T08:29:26.041Z,2.53
2018-10-11T08:31:56.851Z,3.80
2018-10-11T08:34:27.157Z,2.90
2018-10-11T08:36:59.427Z,2.40
2018-10-11T08:39:28.762Z,2.30
2018-10-11T08:42:02.257Z,4.20
2018-10-11T08:44:31.527Z,2.97
2018-10-11T08:47:08.212Z,3.10
2018-10-11T08:49:37.544Z,3.77
2018-10-11T08:52:08.449Z,2.47
2018-10-11T08:54:43.089Z,2.60
2018-10-11T08:57:12.450Z,2.43
2018-10-11T08:59:42.572Z,4.70
2018-10-11T09:02:13.710Z,4.83
2018-10-11T09:04:43.541Z,2.87
2018-10-11T09:07:16.686Z,2.53
2018-10-11T09:09:53.437Z,2.60
2018-10-11T09:12:18.036Z,4.70
2018-10-11T09:14:47.842Z,2.00
2018-10-11T09:17:20.594Z,2.37
2018-10-11T09:19:49.902Z,3.57
2018-10-11T09:22:23.269Z,1.73
2018-10-11T09:24:52.576Z,5.90
2018-10-11T09:27:25.682Z,2.57
2018-10-11T09:29:55.209Z,3.33
2018-10-11T09:32:32.105Z,3.43
2018-10-11T09:35:01.604Z,1.40
2018-10-11T09:37:31.169Z,1.60
2018-10-11T09:40:00.488Z,2.53
2018-10-11T09:42:34.061Z,2.87
2018-10-11T09:45:03.373Z,2.50
2018-10-11T09:47:36.187Z,3.13
2018-10-11T09:50:05.651Z,2.73
2018-10-11T09:52:39.568Z,1.90
2018-10-11T09:55:10.543Z,1.80
2018-10-11T09:57:40.567Z,1.87
2018-10-11T10:00:16.941Z,1.70
2018-10-11T10:02:47.714Z,1.97
2018-10-11T10:05:17.103Z,1.80
2018-10-11T10:07:46.468Z,1.97
2018-10-11T10:10:16.052Z,2.37
2018-10-11T10:12:48.696Z,2.50
2018-10-11T10:15:18.114Z,1.60
2018-10-11T10:17:51.683Z,1.73
2018-10-11T10:20:20.975Z,1.70
2018-10-11T10:22:57.592Z,1.80
2018-10-11T10:28:23.294Z,1.83
2018-10-11T10:31:00.886Z,1.90
2018-10-11T10:33:30.801Z,2.73
2018-10-11T10:36:02.806Z,1.87
2018-10-11T10:38:32.277Z,2.40
2018-10-11T10:41:05.022Z,1.97
2018-10-11T10:43:36.064Z,2.23
2018-10-11T10:46:08.710Z,1.77
2018-10-11T10:48:38.110Z,2.40
2018-10-11T10:51:15.525Z,3.43
2018-10-11T10:53:45.244Z,3.23
2018-10-11T10:56:14.822Z,2.70
2018-10-11T10:58:44.292Z,2.40
2018-10-11T11:01:17.341Z,2.10
2018-10-11T11:03:46.875Z,1.83
2018-10-11T11:06:20.104Z,1.63
2018-10-11T11:08:49.889Z,3.37
2018-10-11T11:11:22.987Z,3.10
2018-10-11T11:13:52.707Z,3.80
2018-10-11T11:16:24.405Z,2.77
2018-10-11T11:18:54.725Z,2.40
2018-10-11T11:21:26.104Z,2.00
2018-10-11T11:23:55.735Z,3.40
2018-10-11T11:26:32.350Z,2.23
2018-10-11T11:29:01.920Z,2.20
2018-10-11T11:31:31.802Z,2.37
2018-10-11T11:34:01.722Z,2.50
2018-10-11T11:36:35.956Z,2.07
2018-10-11T11:39:07.286Z,2.00
2018-10-11T11:41:37.053Z,1.77
2018-10-11T11:44:06.410Z,1.90
2018-10-11T11:46:39.046Z,2.27
2018-10-11T11:49:08.882Z,2.20
2018-10-11T11:51:41.526Z,1.87
2018-10-11T11:54:16.498Z,2.40
2018-10-11T11:56:46.120Z,2.23
2018-10-11T11:59:15.482Z,2.37
2018-10-11T12:01:48.226Z,2.50
2018-10-11T12:04:17.822Z,2.00
2018-10-11T12:06:50.800Z,2.87
2018-10-11T12:09:20.149Z,2.20
2018-10-11T12:11:53.893Z,2.27
2018-10-11T12:14:23.195Z,2.03
2018-10-11T12:16:56.081Z,2.37
2018-10-11T12:19:28.637Z,2.20
2018-10-11T12:22:01.842Z,1.77
2018-10-11T12:24:31.268Z,1.97
2018-10-11T12:27:00.906Z,2.20
2018-10-11T12:29:30.206Z,1.70
2018-10-11T12:32:07.025Z,1.80
2018-10-11T12:34:37.530Z,1.80
2018-10-11T12:37:06.934Z,3.47
2018-10-11T12:39:36.227Z,1.70
2018-10-11T12:42:13.045Z,1.30
2018-10-11T12:44:43.060Z,2.03
2018-10-11T12:47:15.806Z,1.30
2018-10-11T12:49:48.468Z,2.87
2018-10-11T12:52:15.532Z,1.43
2018-10-11T12:54:44.914Z,1.70
2018-10-11T12:57:20.368Z,2.20
2018-10-11T12:59:47.186Z,1.40
2018-10-11T13:02:20.372Z,1.10
2018-10-11T13:04:50.419Z,1.20
2018-10-11T13:07:22.946Z,1.40
2018-10-11T13:09:53.426Z,1.60
2018-10-11T13:12:25.189Z,1.20
2018-10-11T13:14:54.614Z,1.73
2018-10-11T13:17:37.007Z,1.30
2018-10-11T13:20:01.529Z,1.20
2018-10-11T13:22:30.938Z,2.13
2018-10-11T13:25:00.216Z,1.40
2018-10-11T13:27:32.914Z,2.07
2018-10-11T13:30:02.194Z,1.30
2018-10-11T13:32:35.412Z,1.23
2018-10-11T13:35:05.334Z,1.60
2018-10-11T13:37:37.951Z,1.50
2018-10-11T13:40:07.277Z,1.60
2018-10-11T13:42:40.483Z,1.53
2018-10-11T13:45:09.885Z,1.43
2018-10-11T13:47:45.457Z,1.40
2018-10-11T13:50:12.570Z,2.90
2018-10-11T13:52:49.376Z,4.07
2018-10-11T13:55:18.863Z,2.50
2018-10-11T13:57:48.216Z,1.50
2018-10-11T14:00:17.700Z,2.10
2018-10-11T14:02:53.782Z,1.43
2018-10-11T14:05:23.391Z,1.40
2018-10-11T14:07:54.799Z,2.10
2018-10-11T14:10:24.451Z,1.83
2018-10-11T14:12:56.871Z,1.60
2018-10-11T14:15:26.203Z,1.57
2018-10-11T14:18:03.255Z,1.67
2018-10-11T14:20:29.278Z,2.33
2018-10-11T14:23:06.881Z,2.40
2018-10-11T14:25:36.222Z,2.30
2018-10-11T14:28:05.577Z,2.80
2018-10-11T14:30:35.216Z,1.77
2018-10-11T14:33:11.806Z,2.13
2018-10-11T14:35:41.348Z,1.87
2018-10-11T14:38:13.917Z,2.53
2018-10-11T14:40:43.611Z,2.10
2018-10-11T14:43:15.072Z,1.17
2018-10-11T14:45:44.785Z,1.20
2018-10-11T14:48:19.128Z,1.60
2018-10-11T14:50:53.272Z,1.50
2018-10-11T14:53:26.476Z,1.10
2018-10-11T14:55:57.114Z,1.33
2018-10-11T14:58:27.310Z,1.80
2018-10-11T15:00:57.015Z,1.93
2018-10-11T15:03:26.775Z,1.63
2018-10-11T15:05:56.478Z,1.27
2018-10-11T15:08:27.463Z,2.17
2018-10-11T15:10:57.224Z,3.53
2018-10-11T15:13:30.161Z,1.43
2018-10-11T15:15:59.811Z,2.03
2018-10-11T15:18:36.955Z,1.40
2018-10-11T15:21:06.639Z,1.73
2018-10-11T15:23:36.163Z,1.43
2018-10-11T15:26:05.961Z,1.27
2018-10-11T15:28:36.438Z,2.10
2018-10-11T15:31:06.033Z,2.40
2018-10-11T15:33:38.648Z,1.27
2018-10-11T15:36:08.251Z,2.73
2018-10-11T15:38:41.236Z,1.20
2018-10-11T15:41:11.331Z,1.40
2018-10-11T15:43:44.067Z,1.20
2018-10-11T15:46:13.553Z,2.73
2018-10-11T15:48:51.775Z,1.47
2018-10-11T15:51:21.246Z,2.10
2018-10-11T15:53:50.743Z,1.60
2018-10-11T15:56:20.874Z,1.73
2018-10-11T15:58:54.570Z,1.50
2018-10-11T16:01:24.111Z,1.37
2018-10-11T16:03:56.114Z,1.90
2018-10-11T16:06:25.553Z,1.90
2018-10-11T16:08:59.318Z,1.97
2018-10-11T16:11:29.102Z,2.17
2018-10-11T16:14:01.575Z,2.07
2018-10-11T16:16:31.032Z,2.23
2018-10-11T16:19:08.306Z,2.00
2018-10-11T16:21:37.657Z,2.17
2018-10-11T16:24:08.480Z,2.63
2018-10-11T16:26:38.186Z,3.23
2018-10-11T16:29:15.026Z,3.80
2018-10-11T16:31:44.666Z,3.20
2018-10-11T16:34:14.450Z,1.97
2018-10-11T16:36:43.731Z,2.40
2018-10-11T16:39:17.590Z,2.40
2018-10-11T16:41:46.961Z,2.27
2018-10-11T16:44:20.165Z,3.10
2018-10-11T16:46:49.822Z,2.60
2018-10-11T16:49:22.709Z,3.10
2018-10-11T16:51:52.008Z,3.83
2018-10-11T16:54:25.967Z,2.63
2018-10-11T16:56:56.307Z,3.33
2018-10-11T16:59:26.667Z,3.20
2018-10-11T17:01:58.333Z,2.47
2018-10-11T17:04:28.794Z,3.13
2018-10-11T17:06:58.146Z,4.70
2018-10-11T17:09:31.509Z,4.80
2018-10-11T17:12:00.933Z,3.10
2018-10-11T17:14:33.554Z,2.60
2018-10-11T17:17:03.411Z,2.80
2018-10-11T17:19:35.691Z,2.50
2018-10-11T17:23:07.562Z,3.03
2018-10-11T17:25:40.089Z,3.03
2018-10-11T17:28:11.221Z,3.27
2018-10-11T17:30:41.081Z,2.90
2018-10-11T17:33:10.395Z,2.87
2018-10-11T17:35:47.495Z,3.40
2018-10-11T17:38:17.115Z,3.93
2018-10-11T17:40:46.502Z,3.20
2018-10-11T17:43:16.226Z,3.03
2018-10-11T17:45:49.092Z,2.50
2018-10-11T17:48:18.547Z,3.70
2018-10-11T17:50:52.342Z,3.57
2018-10-11T17:53:22.132Z,3.43
2018-10-11T17:55:55.436Z,3.03
2018-10-11T17:58:26.094Z,3.03
2018-10-11T18:00:57.377Z,3.47
2018-10-11T18:03:26.964Z,3.37
2018-10-11T18:06:01.518Z,4.03
2018-10-11T18:08:30.889Z,3.80
2018-10-11T18:11:04.757Z,3.30
2018-10-11T18:13:35.037Z,3.80
2018-10-11T18:16:07.951Z,3.93
2018-10-11T18:18:37.819Z,4.60
2018-10-11T18:21:09.974Z,4.90
2018-10-11T18:23:39.855Z,6.40
2018-10-11T18:26:16.464Z,6.37
2018-10-11T18:28:46.178Z,6.17
2018-10-11T18:31:15.658Z,4.87
2018-10-11T18:33:45.146Z,4.97
2018-10-11T18:36:18.524Z,4.47
2018-10-11T18:38:48.822Z,4.90
2018-10-11T18:41:20.230Z,5.73
2018-10-11T18:43:49.930Z,4.60
2018-10-11T18:46:23.240Z,5.37
2018-10-11T18:48:53.162Z,4.33
2018-10-11T18:51:26.096Z,3.70
2018-10-11T18:53:57.734Z,3.63
2018-10-11T18:56:35.190Z,6.27
2018-10-11T18:59:06.648Z,3.33
2018-10-11T19:01:36.384Z,4.00
2018-10-11T19:04:05.993Z,3.87
2018-10-11T19:06:35.884Z,3.47
2018-10-11T19:09:06.870Z,3.80
2018-10-11T19:11:37.469Z,3.40
2018-10-11T19:14:08.236Z,4.37
2018-10-11T19:16:37.765Z,4.13
2018-10-11T19:19:07.290Z,3.53
2018-10-11T19:21:40.519Z,3.47
2018-10-11T19:24:10.032Z,3.70
2018-10-11T19:26:42.612Z,4.43
2018-10-11T19:29:12.311Z,4.53
2018-10-11T19:31:45.452Z,3.50
2018-10-11T19:34:15.108Z,3.30
2018-10-11T19:36:47.100Z,3.00
2018-10-11T19:39:16.485Z,3.57
2018-10-11T19:41:49.258Z,4.93
2018-10-11T19:44:18.981Z,8.03
2018-10-11T19:46:52.448Z,4.00
2018-10-11T19:49:23.069Z,3.40
2018-10-11T19:51:55.137Z,3.87
2018-10-11T19:54:25.860Z,3.50
2018-10-11T19:56:58.617Z,3.07
2018-10-11T19:59:28.676Z,3.30
2018-10-11T20:01:59.916Z,3.23
2018-10-11T20:04:29.307Z,3.00
2018-10-11T20:07:06.458Z,4.97
2018-10-11T20:09:35.986Z,4.27
2018-10-11T20:12:05.488Z,4.13
2018-10-11T20:14:35.018Z,3.10
2018-10-11T20:17:12.614Z,7.53
2018-10-11T20:19:42.703Z,2.80
2018-10-11T20:22:14.568Z,2.93
2018-10-11T20:24:44.282Z,3.70
2018-10-11T20:27:17.122Z,3.40
2018-10-11T20:29:46.536Z,3.23
2018-10-11T20:32:18.303Z,3.87
2018-10-11T20:34:47.704Z,3.10
2018-10-11T20:37:20.954Z,3.20
2018-10-11T20:39:50.903Z,2.70
2018-10-11T20:42:24.049Z,4.00
2018-10-11T20:44:53.402Z,2.83
2018-10-11T20:47:25.935Z,4.73
2018-10-11T20:49:55.760Z,3.13
2018-10-11T20:52:28.601Z,3.17
2018-10-11T20:54:58.157Z,3.63
2018-10-11T20:57:30.335Z,3.37
2018-10-11T21:00:00.054Z,2.50
2018-10-11T21:02:32.400Z,3.60
2018-10-11T21:05:02.983Z,3.13
2018-10-11T21:07:40.242Z,3.60
2018-10-11T21:10:10.405Z,3.20
2018-10-11T21:12:39.751Z,3.73
2018-10-11T21:15:09.274Z,3.20
2018-10-11T21:17:41.848Z,3.23
2018-10-11T21:20:11.504Z,2.70
2018-10-11T21:22:45.502Z,3.30
2018-10-11T21:25:16.031Z,3.87
2018-10-11T21:27:49.127Z,2.80
2018-10-11T21:30:18.830Z,2.77
2018-10-11T21:32:52.239Z,3.17
2018-10-11T21:35:22.362Z,3.60
2018-10-11T21:37:53.642Z,2.60
2018-10-11T21:40:23.066Z,3.23
2018-10-11T21:42:59.977Z,3.17
2018-10-11T21:45:30.193Z,2.37
2018-10-11T21:48:00.101Z,2.40
2018-10-11T21:50:29.656Z,2.37
2018-10-11T21:53:02.559Z,2.93
2018-10-11T21:55:31.986Z,3.13
2018-10-11T21:58:08.464Z,2.50
2018-10-11T22:00:43.341Z,2.40
2018-10-11T22:03:12.650Z,5.10
2018-10-11T22:05:42.387Z,2.20
2018-10-11T22:08:12.402Z,2.23
2018-10-11T22:10:41.876Z,4.97
2018-10-11T22:13:15.013Z,4.60
2018-10-11T22:15:44.329Z,2.53
2018-10-11T22:18:21.061Z,2.53
2018-10-11T22:20:52.103Z,4.10
2018-10-11T22:23:21.822Z,3.00
2018-10-11T22:25:51.295Z,2.60
2018-10-11T22:28:22.251Z,2.70
2018-10-11T22:30:51.975Z,2.70
2018-10-11T22:33:25.108Z,2.90
2018-10-11T22:35:55.086Z,2.30
2018-10-11T22:38:27.861Z,4.50
2018-10-11T22:40:57.605Z,2.67
2018-10-11T22:43:34.394Z,3.50
2018-10-11T22:46:03.792Z,2.60
2018-10-11T22:48:33.256Z,2.37
2018-10-11T22:51:04.983Z,2.40
2018-10-11T22:53:37.649Z,3.27
2018-10-11T22:56:07.295Z,2.20
2018-10-11T22:58:43.796Z,2.43
2018-10-11T23:01:13.618Z,2.30
2018-10-11T23:03:43.154Z,2.60
2018-10-11T23:06:12.515Z,2.73
2018-10-11T23:08:45.487Z,2.07
2018-10-11T23:11:15.112Z,3.20
2018-10-11T23:13:48.209Z,2.63
2018-10-11T23:16:18.138Z,1.80
2018-10-11T23:18:51.021Z,2.10
2018-10-11T23:21:20.610Z,3.50
2018-10-11T23:23:57.304Z,1.90
2018-10-11T23:26:26.521Z,3.73
2018-10-11T23:28:56.417Z,2.67
2018-10-11T23:31:25.938Z,2.10
2018-10-11T23:34:02.770Z,2.30
2018-10-11T23:36:32.286Z,2.30
2018-10-11T23:39:02.179Z,2.00
2018-10-11T23:41:31.422Z,5.77
2018-10-11T23:44:08.581Z,2.63
2018-10-11T23:46:37.855Z,3.83
2018-10-11T23:49:08.917Z,2.43
2018-10-11T23:51:38.458Z,2.43
2018-10-11T23:54:12.153Z,1.80
2018-10-11T23:56:41.378Z,2.60
2018-10-11T23:59:17.830Z,1.97
